createdAt,value
2022-12-23T00:00:11.066Z,21.98
2022-12-23T00:02:38.513Z,21.20
2022-12-23T00:05:06.084Z,23.45
2022-12-23T00:07:32.857Z,23.65
2022-12-23T00:09:59.483Z,23.42
2022-12-23T00:12:44.834Z,23.58
2022-12-23T00:15:12.752Z,25.02
2022-12-23T00:17:44.377Z,23.48
2022-12-23T00:20:15.176Z,26.27
2022-12-23T00:23:00.726Z,23.58
2022-12-23T00:25:44.691Z,25.52
2022-12-23T00:28:13.121Z,26.77
2022-12-23T00:30:48.387Z,29.67
2022-12-23T00:33:16.705Z,29.67
2022-12-23T00:35:44.841Z,33.75
2022-12-23T00:38:12.339Z,33.83
2022-12-23T00:40:57.784Z,30.27
2022-12-23T00:43:24.579Z,34.50
2022-12-23T00:45:51.390Z,31.20
2022-12-23T00:48:36.775Z,29.60
2022-12-23T00:51:03.550Z,28.67
2022-12-23T00:53:30.219Z,30.60
2022-12-23T00:55:56.829Z,34.05
2022-12-23T00:58:23.459Z,32.00
2022-12-23T01:01:08.640Z,32.45
2022-12-23T01:03:53.957Z,31.52
2022-12-23T01:06:20.599Z,31.13
2022-12-23T01:08:47.170Z,33.20
2022-12-23T01:11:13.774Z,32.75
2022-12-23T01:13:40.419Z,32.67
2022-12-23T01:16:15.035Z,30.63
2022-12-23T01:18:44.144Z,30.70
2022-12-23T01:21:11.402Z,30.23
2022-12-23T01:23:38.783Z,28.25
2022-12-23T01:26:07.263Z,31.27
2022-12-23T01:28:35.421Z,32.30
2022-12-23T01:31:03.818Z,30.70
2022-12-23T01:33:32.081Z,31.27
2022-12-23T01:36:07.876Z,29.50
2022-12-23T01:38:35.045Z,30.50
2022-12-23T01:41:01.719Z,29.92
2022-12-23T01:43:52.003Z,28.60
2022-12-23T01:46:18.870Z,29.55
2022-12-23T01:48:51.056Z,30.38
2022-12-23T01:51:30.021Z,29.33
2022-12-23T01:54:01.072Z,27.92
2022-12-23T01:56:34.454Z,38.10
2022-12-23T01:59:05.691Z,36.95
2022-12-23T02:01:50.741Z,32.80
2022-12-23T02:04:20.293Z,30.02
2022-12-23T02:07:08.406Z,30.95
2022-12-23T02:09:38.334Z,29.50
2022-12-23T02:12:32.528Z,29.38
2022-12-23T02:15:25.048Z,30.13
2022-12-23T02:18:10.246Z,27.98
2022-12-23T02:20:51.734Z,27.20
2022-12-23T02:23:30.326Z,28.58
2022-12-23T02:26:09.087Z,27.98
2022-12-23T02:29:03.786Z,26.73
2022-12-23T02:31:49.823Z,28.02
2022-12-23T02:34:22.741Z,27.27
2022-12-23T02:36:55.266Z,27.40
2022-12-23T02:39:53.916Z,27.08
2022-12-23T02:43:05.259Z,29.20
2022-12-23T02:45:45.379Z,27.13
2022-12-23T02:48:21.173Z,27.42
2022-12-23T02:50:48.983Z,27.75
2022-12-23T02:53:22.297Z,29.17
2022-12-23T02:55:52.035Z,27.48
2022-12-23T02:58:23.119Z,26.92
2022-12-23T03:00:50.690Z,27.60
2022-12-23T03:03:17.740Z,26.55
2022-12-23T03:05:47.517Z,24.95
2022-12-23T03:08:22.156Z,27.25
2022-12-23T03:11:00.744Z,25.88
2022-12-23T03:13:45.722Z,28.60
2022-12-23T03:16:24.595Z,30.05
2022-12-23T03:19:07.389Z,27.17
2022-12-23T03:21:52.614Z,24.92
2022-12-23T03:24:55.744Z,24.88
2022-12-23T03:27:48.525Z,26.45
2022-12-23T03:30:18.667Z,23.70
2022-12-23T03:32:58.395Z,26.02
2022-12-23T03:35:36.268Z,27.25
2022-12-23T03:38:04.001Z,25.25
2022-12-23T03:40:39.068Z,24.48
2022-12-23T03:43:13.763Z,25.85
2022-12-23T03:45:48.739Z,27.08
2022-12-23T03:48:40.648Z,26.00
2022-12-23T03:51:25.764Z,23.80
2022-12-23T03:53:59.331Z,25.98
2022-12-23T03:56:35.503Z,28.33
2022-12-23T03:59:11.174Z,27.50
2022-12-23T04:01:53.186Z,26.73
2022-12-23T04:04:32.885Z,27.63
2022-12-23T04:07:05.405Z,26.73
2022-12-23T04:09:32.949Z,26.65
2022-12-23T04:11:59.613Z,26.65
2022-12-23T04:14:26.359Z,24.95
2022-12-23T04:16:58.400Z,26.17
2022-12-23T04:19:25.639Z,25.30
2022-12-23T04:21:55.874Z,25.70
2022-12-23T04:24:22.953Z,25.65
2022-12-23T04:26:49.654Z,26.27
2022-12-23T04:29:16.559Z,26.00
2022-12-23T04:31:43.197Z,25.80
2022-12-23T04:34:10.032Z,24.58
2022-12-23T04:36:36.822Z,24.55
2022-12-23T04:39:03.596Z,25.25
2022-12-23T04:41:30.355Z,24.73
2022-12-23T04:43:56.983Z,25.95
2022-12-23T04:46:23.608Z,24.75
2022-12-23T04:48:50.355Z,24.13
2022-12-23T04:51:17.226Z,25.92
2022-12-23T04:53:43.862Z,26.20
2022-12-23T04:56:10.877Z,24.45
2022-12-23T04:58:38.143Z,23.98
2022-12-23T05:01:07.663Z,22.40
2022-12-23T05:03:34.936Z,20.88
2022-12-23T05:06:02.406Z,20.13
2022-12-23T05:08:29.859Z,20.67
2022-12-23T05:10:56.937Z,21.42
2022-12-23T05:13:23.629Z,20.83
2022-12-23T05:15:51.616Z,20.27
2022-12-23T05:18:18.538Z,19.10
2022-12-23T05:20:45.409Z,19.33
2022-12-23T05:23:12.323Z,18.10
2022-12-23T05:25:40.089Z,17.80
2022-12-23T05:28:09.476Z,18.80
2022-12-23T05:30:36.621Z,18.02
2022-12-23T05:33:03.345Z,17.60
2022-12-23T05:35:30.141Z,19.92
2022-12-23T05:37:57.841Z,19.25
2022-12-23T05:40:28.756Z,21.05
2022-12-23T05:42:59.224Z,20.25
2022-12-23T05:45:25.952Z,20.98
2022-12-23T05:47:52.641Z,20.55
2022-12-23T05:50:19.274Z,22.38
2022-12-23T05:52:48.474Z,21.63
2022-12-23T05:55:15.205Z,22.63
2022-12-23T05:57:41.865Z,23.00
2022-12-23T06:00:09.613Z,23.65
2022-12-23T06:02:39.264Z,25.63
2022-12-23T06:05:06.995Z,25.75
2022-12-23T06:07:33.742Z,23.77
2022-12-23T06:10:00.404Z,26.10
2022-12-23T06:12:27.236Z,24.88
2022-12-23T06:14:54.041Z,23.77
2022-12-23T06:17:20.805Z,23.45
2022-12-23T06:19:47.890Z,23.55
2022-12-23T06:22:15.284Z,24.05
2022-12-23T06:24:42.017Z,24.75
2022-12-23T06:27:08.725Z,23.92
2022-12-23T06:29:35.397Z,23.63
2022-12-23T06:32:02.253Z,24.40
2022-12-23T06:34:28.948Z,25.10
2022-12-23T06:36:55.594Z,23.70
2022-12-23T06:39:22.423Z,24.92
2022-12-23T06:41:49.372Z,24.02
2022-12-23T06:44:16.023Z,25.63
2022-12-23T06:46:42.775Z,25.25
2022-12-23T06:49:13.387Z,26.20
2022-12-23T06:51:41.145Z,24.23
2022-12-23T06:54:11.106Z,25.55
2022-12-23T06:56:38.083Z,24.38
2022-12-23T06:59:04.773Z,24.10
2022-12-23T07:01:31.880Z,24.35
2022-12-23T07:03:58.748Z,24.33
2022-12-23T07:06:25.304Z,25.55
2022-12-23T07:08:52.214Z,24.65
2022-12-23T07:11:18.915Z,23.92
2022-12-23T07:13:46.350Z,23.35
2022-12-23T07:16:13.358Z,22.73
2022-12-23T07:18:40.130Z,24.05
2022-12-23T07:21:10.578Z,23.50
2022-12-23T07:23:44.596Z,24.40
2022-12-23T07:26:11.367Z,26.88
2022-12-23T07:28:38.320Z,26.92
2022-12-23T07:31:08.043Z,27.33
2022-12-23T07:33:35.153Z,26.70
2022-12-23T07:36:01.903Z,25.17
2022-12-23T07:38:29.765Z,25.73
2022-12-23T07:40:56.356Z,28.65
2022-12-23T07:43:23.055Z,30.23
2022-12-23T07:45:55.585Z,32.00
2022-12-23T07:48:26.169Z,26.23
2022-12-23T07:50:53.061Z,26.02
2022-12-23T07:53:19.635Z,23.45
2022-12-23T07:55:48.092Z,25.30
2022-12-23T07:58:18.227Z,25.15
2022-12-23T08:00:44.845Z,26.48
2022-12-23T08:03:12.324Z,26.67
2022-12-23T08:05:39.004Z,25.02
2022-12-23T08:08:05.591Z,26.77
2022-12-23T08:10:32.506Z,25.67
2022-12-23T08:13:02.519Z,26.38
2022-12-23T08:15:29.423Z,26.02
2022-12-23T08:17:56.595Z,25.65
2022-12-23T08:20:23.262Z,25.40
2022-12-23T08:22:49.903Z,23.60
2022-12-23T08:25:16.540Z,21.85
2022-12-23T08:27:43.280Z,23.25
2022-12-23T08:30:10.429Z,22.80
2022-12-23T08:32:37.109Z,23.95
2022-12-23T08:35:03.880Z,20.60
2022-12-23T08:37:30.457Z,20.38
2022-12-23T08:39:57.111Z,22.00
2022-12-23T08:42:23.696Z,21.10
2022-12-23T08:44:50.299Z,19.52
2022-12-23T08:47:16.927Z,17.70
2022-12-23T08:49:43.584Z,15.20
2022-12-23T08:52:10.231Z,15.45
2022-12-23T08:54:36.839Z,14.80
2022-12-23T08:57:03.564Z,14.07
2022-12-23T08:59:30.150Z,17.80
2022-12-23T09:01:59.649Z,16.90
2022-12-23T09:04:26.558Z,17.92
2022-12-23T09:06:53.439Z,18.88
2022-12-23T09:09:19.995Z,16.52
2022-12-23T09:11:46.745Z,17.08
2022-12-23T09:14:13.863Z,16.80
2022-12-23T09:16:40.549Z,17.52
2022-12-23T09:19:08.043Z,18.65
2022-12-23T09:21:35.024Z,18.60
2022-12-23T09:24:01.980Z,18.55
2022-12-23T09:26:30.703Z,18.88
2022-12-23T09:28:57.980Z,18.00
2022-12-23T09:31:27.869Z,16.58
2022-12-23T09:33:59.204Z,15.75
2022-12-23T09:36:25.837Z,14.20
2022-12-23T09:38:57.807Z,13.35
2022-12-23T09:41:42.927Z,14.25
2022-12-23T09:44:28.542Z,13.25
2022-12-23T09:47:01.189Z,12.45
2022-12-23T09:49:28.333Z,12.57
2022-12-23T09:52:00.227Z,12.13
2022-12-23T09:54:30.044Z,11.45
2022-12-23T09:57:11.866Z,10.48
2022-12-23T09:59:53.302Z,9.38
2022-12-23T10:02:42.323Z,9.82
2022-12-23T10:05:21.528Z,9.40
2022-12-23T10:08:03.168Z,9.43
2022-12-23T10:10:50.334Z,9.13
2022-12-23T10:13:26.662Z,9.43
2022-12-23T10:15:55.330Z,8.75
2022-12-23T10:18:42.184Z,9.40
2022-12-23T10:21:12.379Z,10.32
2022-12-23T10:23:44.208Z,10.00
2022-12-23T10:26:43.188Z,10.98
2022-12-23T10:29:18.317Z,10.13
2022-12-23T10:32:24.618Z,9.05
2022-12-23T10:34:51.148Z,8.55
2022-12-23T10:37:37.539Z,9.40
2022-12-23T10:40:16.157Z,8.65
2022-12-23T10:42:45.702Z,8.70
2022-12-23T10:45:41.285Z,8.07
2022-12-23T10:48:13.641Z,7.82
2022-12-23T10:51:11.591Z,7.40
2022-12-23T10:53:47.105Z,7.40
2022-12-23T10:56:15.083Z,6.95
2022-12-23T10:58:44.943Z,7.75
2022-12-23T11:01:23.838Z,6.53
2022-12-23T11:04:06.074Z,6.13
2022-12-23T11:06:37.638Z,6.30
2022-12-23T11:09:06.090Z,7.45
2022-12-23T11:12:02.328Z,7.60
2022-12-23T11:14:42.782Z,7.05
2022-12-23T11:17:30.307Z,7.38
2022-12-23T11:20:08.807Z,7.68
2022-12-23T11:22:35.519Z,8.05
2022-12-23T11:25:37.763Z,7.32
2022-12-23T11:28:10.058Z,7.70
2022-12-23T11:31:05.606Z,7.72
2022-12-23T11:34:11.762Z,7.60
2022-12-23T11:36:38.567Z,8.00
2022-12-23T11:39:24.459Z,7.63
2022-12-23T11:41:54.610Z,8.27
2022-12-23T11:44:33.260Z,8.02
2022-12-23T11:47:24.274Z,7.93
2022-12-23T11:49:55.334Z,8.13
2022-12-23T11:52:26.306Z,7.55
2022-12-23T11:54:58.309Z,7.68
2022-12-23T11:57:39.548Z,7.95
2022-12-23T12:00:16.653Z,7.95
2022-12-23T12:02:45.913Z,7.15
2022-12-23T12:05:22.709Z,7.47
2022-12-23T12:07:51.219Z,7.05
2022-12-23T12:10:29.572Z,7.78
2022-12-23T12:13:01.631Z,7.70
2022-12-23T12:15:50.764Z,8.35
2022-12-23T12:18:19.657Z,7.60
2022-12-23T12:20:51.684Z,7.20
2022-12-23T12:23:23.261Z,7.70
2022-12-23T12:25:59.828Z,8.32
2022-12-23T12:28:34.488Z,8.40
2022-12-23T12:31:20.418Z,8.13
2022-12-23T12:33:56.296Z,7.82
2022-12-23T12:36:55.903Z,7.55
2022-12-23T12:39:38.100Z,7.40
2022-12-23T12:42:29.171Z,7.28
2022-12-23T12:45:05.890Z,7.45
2022-12-23T12:48:01.385Z,8.07
2022-12-23T12:50:32.704Z,7.30
2022-12-23T12:53:09.096Z,7.65
2022-12-23T12:55:39.978Z,8.23
2022-12-23T12:58:19.998Z,7.43
2022-12-23T13:01:20.917Z,7.95
2022-12-23T13:04:18.737Z,8.20
2022-12-23T13:07:23.074Z,7.90
2022-12-23T13:09:58.834Z,8.68
2022-12-23T13:12:25.367Z,8.02
2022-12-23T13:15:11.775Z,7.97
2022-12-23T13:17:49.885Z,7.80
2022-12-23T13:20:36.234Z,7.45
2022-12-23T13:23:42.760Z,7.53
2022-12-23T13:26:37.316Z,7.68
2022-12-23T13:29:28.376Z,7.80
2022-12-23T13:32:22.522Z,8.93
2022-12-23T13:34:57.867Z,8.40
2022-12-23T13:37:50.068Z,8.18
2022-12-23T13:40:42.176Z,9.52
2022-12-23T13:43:18.814Z,8.93
2022-12-23T13:45:48.051Z,8.25
2022-12-23T13:48:45.014Z,8.70
2022-12-23T13:51:30.470Z,8.18
2022-12-23T13:54:25.001Z,8.00
2022-12-23T13:57:08.080Z,8.35
2022-12-23T13:59:43.625Z,7.90
2022-12-23T14:02:35.287Z,8.48
2022-12-23T14:05:05.560Z,7.93
2022-12-23T14:07:34.223Z,7.47
2022-12-23T14:10:19.929Z,8.32
2022-12-23T14:12:47.357Z,8.65
2022-12-23T14:15:26.469Z,8.05
2022-12-23T14:18:18.169Z,8.10
2022-12-23T14:20:55.722Z,8.07
2022-12-23T14:23:40.925Z,8.30
2022-12-23T14:26:33.954Z,8.07
2022-12-23T14:29:34.502Z,8.32
2022-12-23T14:32:01.574Z,8.38
2022-12-23T14:34:33.345Z,9.25
2022-12-23T14:37:24.941Z,9.95
2022-12-23T14:39:53.077Z,9.88
2022-12-23T14:42:42.981Z,10.90
2022-12-23T14:45:33.745Z,13.02
2022-12-23T14:48:00.461Z,12.68
2022-12-23T14:50:34.202Z,12.63
2022-12-23T14:53:20.444Z,11.90
2022-12-23T14:55:49.254Z,11.40
2022-12-23T14:58:20.174Z,10.80
2022-12-23T15:00:57.236Z,10.95
2022-12-23T15:03:24.231Z,10.75
2022-12-23T15:05:51.280Z,11.88
2022-12-23T15:08:30.774Z,11.20
2022-12-23T15:10:59.180Z,11.40
2022-12-23T15:13:28.983Z,10.82
2022-12-23T15:16:01.430Z,11.55
2022-12-23T15:18:29.093Z,11.38
2022-12-23T15:21:09.388Z,11.00
2022-12-23T15:23:36.446Z,9.98
2022-12-23T15:26:03.320Z,9.70
2022-12-23T15:28:39.563Z,9.88
2022-12-23T15:31:12.822Z,11.13
2022-12-23T15:36:35.776Z,11.45
2022-12-23T15:39:17.501Z,10.88
2022-12-23T15:41:45.946Z,11.10
2022-12-23T15:44:22.591Z,9.95
2022-12-23T15:46:50.741Z,9.98
2022-12-23T15:49:19.587Z,9.73
2022-12-23T15:52:09.738Z,9.88
2022-12-23T15:54:53.543Z,10.10
2022-12-23T15:57:23.420Z,10.20
2022-12-23T15:59:50.530Z,9.60
2022-12-23T16:02:59.142Z,10.70
2022-12-23T16:05:13.381Z,10.52
2022-12-23T16:07:41.829Z,10.57
2022-12-23T16:10:18.715Z,9.80
2022-12-23T16:12:45.415Z,9.82
2022-12-23T16:15:25.849Z,9.38
2022-12-23T16:17:52.581Z,9.85
2022-12-23T16:20:21.665Z,9.55
2022-12-23T16:22:51.290Z,8.82
2022-12-23T16:25:24.696Z,8.68
2022-12-23T16:28:07.550Z,7.95
2022-12-23T16:30:41.719Z,8.10
2022-12-23T16:33:35.913Z,8.32
2022-12-23T16:36:33.352Z,8.82
2022-12-23T16:39:11.846Z,8.63
2022-12-23T16:41:38.509Z,8.70
2022-12-23T16:44:05.363Z,8.43
2022-12-23T16:46:36.480Z,9.40
2022-12-23T16:49:06.014Z,8.27
2022-12-23T16:51:34.257Z,9.13
2022-12-23T16:54:01.988Z,9.57
2022-12-23T16:56:33.357Z,9.57
2022-12-23T16:59:00.085Z,9.73
2022-12-23T17:01:33.175Z,10.40
2022-12-23T17:06:26.875Z,10.82
2022-12-23T17:08:53.850Z,11.63
2022-12-23T17:11:30.071Z,12.38
2022-12-23T17:14:03.885Z,12.02
2022-12-23T17:16:31.998Z,13.85
2022-12-23T17:18:58.802Z,14.93
2022-12-23T17:21:33.436Z,13.32
2022-12-23T17:24:07.239Z,15.27
2022-12-23T17:26:33.921Z,15.45
2022-12-23T17:29:03.417Z,14.32
2022-12-23T17:31:30.459Z,14.73
2022-12-23T17:33:57.333Z,15.38
2022-12-23T17:36:23.983Z,15.55
2022-12-23T17:38:50.670Z,16.67
2022-12-23T17:41:27.339Z,18.17
2022-12-23T17:43:54.040Z,16.98
2022-12-23T17:46:21.058Z,16.17
2022-12-23T17:48:47.906Z,17.00
2022-12-23T17:51:20.572Z,18.73
2022-12-23T17:53:53.198Z,17.70
2022-12-23T17:56:24.663Z,16.92
2022-12-23T17:58:51.940Z,15.90
2022-12-23T18:01:30.028Z,15.70
2022-12-23T18:03:58.486Z,16.10
2022-12-23T18:06:27.294Z,15.68
2022-12-23T18:08:54.154Z,14.88
2022-12-23T18:11:28.099Z,15.63
2022-12-23T18:13:54.935Z,14.38
2022-12-23T18:16:21.936Z,13.73
2022-12-23T18:18:48.638Z,13.13
2022-12-23T18:21:22.551Z,12.68
2022-12-23T18:23:50.512Z,13.50
2022-12-23T18:26:17.396Z,13.38
2022-12-23T18:28:44.054Z,12.75
2022-12-23T18:31:17.325Z,13.73
2022-12-23T18:33:44.151Z,13.32
2022-12-23T18:36:26.279Z,12.07
2022-12-23T18:38:53.747Z,11.63
2022-12-23T18:41:21.771Z,11.45
2022-12-23T18:43:48.460Z,11.90
2022-12-23T18:46:15.251Z,16.35
2022-12-23T18:48:42.178Z,14.65
2022-12-23T18:51:20.395Z,11.65
2022-12-23T18:53:49.856Z,11.48
2022-12-23T18:56:21.267Z,13.73
2022-12-23T18:58:48.632Z,13.38
2022-12-23T19:01:17.425Z,12.20
2022-12-23T19:03:44.903Z,12.98
2022-12-23T19:06:15.611Z,12.38
2022-12-23T19:08:43.511Z,12.18
2022-12-23T19:11:13.003Z,14.27
2022-12-23T19:13:39.680Z,14.93
2022-12-23T19:16:07.014Z,12.70
2022-12-23T19:18:33.939Z,12.13
2022-12-23T19:21:04.770Z,12.68
2022-12-23T19:23:31.870Z,13.50
2022-12-23T19:25:58.649Z,12.23
2022-12-23T19:28:25.244Z,12.10
2022-12-23T19:30:52.360Z,12.18
2022-12-23T19:33:18.982Z,12.88
2022-12-23T19:35:45.735Z,14.65
2022-12-23T19:38:12.820Z,14.30
2022-12-23T19:40:40.460Z,13.80
2022-12-23T19:43:07.698Z,13.98
2022-12-23T19:45:34.413Z,13.15
2022-12-23T19:48:01.284Z,14.30
2022-12-23T19:50:28.229Z,14.23
2022-12-23T19:52:56.615Z,14.00
2022-12-23T19:55:23.780Z,13.93
2022-12-23T19:57:52.029Z,14.93
2022-12-23T20:00:18.752Z,15.10
2022-12-23T20:02:45.396Z,14.95
2022-12-23T20:05:12.215Z,14.45
2022-12-23T20:07:38.848Z,13.07
2022-12-23T20:10:06.122Z,13.65
2022-12-23T20:12:33.515Z,14.65
2022-12-23T20:15:00.192Z,14.38
2022-12-23T20:17:27.259Z,13.65
2022-12-23T20:19:53.870Z,14.68
2022-12-23T20:22:20.458Z,12.55
2022-12-23T20:24:47.309Z,13.20
2022-12-23T20:27:15.882Z,13.07
2022-12-23T20:29:43.136Z,10.80
2022-12-23T20:32:10.074Z,11.13
2022-12-23T20:34:39.645Z,10.20
2022-12-23T20:37:07.875Z,10.30
2022-12-23T20:39:35.399Z,11.43
2022-12-23T20:42:02.407Z,10.23
2022-12-23T20:44:35.609Z,11.55
2022-12-23T20:47:03.961Z,11.27
2022-12-23T20:49:30.826Z,10.35
2022-12-23T20:51:57.611Z,10.70
2022-12-23T20:54:31.652Z,10.75
2022-12-23T20:56:59.313Z,12.13
2022-12-23T20:59:25.894Z,12.02
2022-12-23T21:01:52.731Z,12.43
2022-12-23T21:04:19.511Z,13.23
2022-12-23T21:06:46.205Z,13.82
2022-12-23T21:09:15.709Z,13.38
2022-12-23T21:11:45.215Z,13.48
2022-12-23T21:14:13.197Z,13.32
2022-12-23T21:16:40.433Z,12.65
2022-12-23T21:19:09.169Z,12.75
2022-12-23T21:21:35.934Z,12.05
2022-12-23T21:24:04.532Z,13.05
2022-12-23T21:26:33.035Z,12.65
2022-12-23T21:29:01.473Z,13.00
2022-12-23T21:31:30.972Z,13.10
2022-12-23T21:33:58.766Z,13.90
2022-12-23T21:36:28.279Z,12.80
2022-12-23T21:38:55.217Z,13.90
2022-12-23T21:41:24.641Z,15.13
2022-12-23T21:43:52.037Z,15.68
2022-12-23T21:46:21.292Z,15.07
2022-12-23T21:48:48.712Z,15.90
2022-12-23T21:51:20.899Z,15.85
2022-12-23T21:53:50.408Z,15.70
2022-12-23T21:56:20.168Z,15.13
2022-12-23T21:58:47.375Z,15.32
2022-12-23T22:01:19.346Z,15.52
2022-12-23T22:03:48.613Z,15.77
2022-12-23T22:06:20.227Z,15.48
2022-12-23T22:08:47.559Z,16.83
2022-12-23T22:11:16.786Z,16.40
2022-12-23T22:13:44.309Z,15.57
2022-12-23T22:16:17.261Z,14.85
2022-12-23T22:18:44.644Z,15.85
2022-12-23T22:21:14.065Z,14.35
2022-12-23T22:23:41.134Z,15.32
2022-12-23T22:26:08.801Z,15.07
2022-12-23T22:28:36.932Z,15.30
2022-12-23T22:31:16.861Z,15.07
2022-12-23T22:33:44.394Z,15.95
2022-12-23T22:36:13.313Z,16.15
2022-12-23T22:38:40.878Z,15.25
2022-12-23T22:41:08.957Z,15.63
2022-12-23T22:43:35.572Z,16.45
2022-12-23T22:46:03.192Z,16.35
2022-12-23T22:48:30.727Z,15.70
2022-12-23T22:51:15.645Z,14.55
2022-12-23T22:53:42.354Z,16.52
2022-12-23T22:56:12.015Z,15.52
2022-12-23T22:58:38.938Z,16.02
2022-12-23T23:01:06.555Z,17.40
2022-12-23T23:03:33.632Z,17.73
2022-12-23T23:06:07.037Z,18.23
2022-12-23T23:08:34.927Z,15.93
2022-12-23T23:11:04.725Z,16.83
2022-12-23T23:13:34.578Z,15.95
2022-12-23T23:16:02.151Z,14.85
2022-12-23T23:18:30.073Z,15.02
2022-12-23T23:20:56.784Z,15.35
2022-12-23T23:23:23.587Z,15.75
2022-12-23T23:25:50.444Z,15.15
2022-12-23T23:28:17.212Z,16.17
2022-12-23T23:30:44.438Z,15.95
2022-12-23T23:33:11.848Z,15.93
2022-12-23T23:35:38.546Z,16.42
2022-12-23T23:38:05.152Z,16.88
2022-12-23T23:40:31.804Z,15.43
2022-12-23T23:42:58.601Z,15.45
2022-12-23T23:45:25.391Z,15.52
2022-12-23T23:47:52.124Z,16.45
2022-12-23T23:50:19.073Z,15.52
2022-12-23T23:52:45.715Z,14.93
2022-12-23T23:55:12.378Z,14.70
2022-12-23T23:57:39.419Z,15.63
